Time;durP1;ratioP1;P1;durP2;ratioP2;P2;SDS_P1;SDS_P2;PMS_P1;PMS_P2;Temp;Humidity;BMP_temperature;BMP_pressure;BME280_temperature;BME280_humidity;BME280_pressure;Samples;Min_cycle;Max_cycle;Signal;HPM_P1;HPM_P2
2021/06/15 00:00:28;;;;;;;4.07;2.00;;;;;;;20.62;47.61;100959.78;146695;666;46008;-60
2021/06/15 00:02:59;;;;;;;4.07;2.03;;;;;;;20.59;47.40;100951.16;146696;588;46010;-60
2021/06/15 00:05:29;;;;;;;3.97;2.30;;;;;;;20.52;48.07;100963.19;146695;573;46010;-60
2021/06/15 00:08:00;;;;;;;4.30;2.20;;;;;;;20.51;48.09;100964.12;146695;583;46010;-59
2021/06/15 00:10:31;;;;;;;6.55;2.40;;;;;;;20.44;48.04;100951.19;146697;565;46018;-60
2021/06/15 00:13:02;;;;;;;5.62;2.40;;;;;;;20.32;48.58;100960.00;146695;564;46016;-59
2021/06/15 00:15:32;;;;;;;4.35;2.40;;;;;;;20.29;49.25;100960.19;146696;585;46018;-60
2021/06/15 00:18:03;;;;;;;4.43;2.10;;;;;;;20.23;49.10;100955.25;146696;661;46016;-60
2021/06/15 00:20:34;;;;;;;5.22;2.20;;;;;;;20.21;49.10;100958.03;146697;587;47009;-60
2021/06/15 00:23:04;;;;;;;5.15;2.33;;;;;;;20.16;48.90;100959.28;146696;563;46016;-60
2021/06/15 00:25:35;;;;;;;6.18;2.40;;;;;;;20.14;49.38;100955.87;146697;564;46018;-59
2021/06/15 00:28:06;;;;;;;4.35;2.20;;;;;;;20.09;49.75;100950.81;146697;614;45999;-60
2021/06/15 00:30:37;;;;;;;4.85;2.12;;;;;;;20.04;49.45;100945.78;146696;580;46018;-60
2021/06/15 00:33:08;;;;;;;4.75;2.30;;;;;;;20.01;49.43;100945.13;146696;649;46010;-59
2021/06/15 00:35:38;;;;;;;6.15;2.30;;;;;;;19.93;49.50;100938.47;146692;591;46019;-59
2021/06/15 00:38:09;;;;;;;4.80;2.20;;;;;;;19.89;50.47;100936.97;146694;616;46907;-59
2021/06/15 00:40:39;;;;;;;5.93;2.25;;;;;;;19.81;50.40;100949.06;146698;585;46008;-59
2021/06/15 00:43:10;;;;;;;6.47;2.30;;;;;;;19.88;49.94;100939.72;146694;671;47908;-59
2021/06/15 00:45:40;;;;;;;5.57;2.05;;;;;;;19.84;50.04;100941.72;146696;616;46018;-60
2021/06/15 00:48:31;;;;;;;4.95;1.90;;;;;;;19.84;50.25;100935.56;146695;643;46016;-60
2021/06/15 00:51:04;;;;;;;4.05;2.10;;;;;;;19.86;50.14;100939.84;146698;582;46008;-60
2021/06/15 00:53:37;;;;;;;5.00;2.20;;;;;;;19.80;50.23;100937.53;146695;585;46016;-60
2021/06/15 00:56:07;;;;;;;3.78;2.20;;;;;;;19.74;50.58;100941.44;146698;637;46018;-60
2021/06/15 00:58:38;;;;;;;4.05;2.22;;;;;;;19.65;50.65;100934.00;146694;695;46908;-60
2021/06/15 01:01:08;;;;;;;5.43;2.50;;;;;;;19.66;51.09;100942.88;146699;569;46008;-60
2021/06/15 01:03:40;;;;;;;4.20;2.22;;;;;;;19.67;51.30;100948.09;146695;585;46010;-60
2021/06/15 01:06:19;;;;;;;3.10;2.03;;;;;;;19.71;51.11;100936.31;146698;565;46008;-60
2021/06/15 01:09:04;;;;;;;5.40;2.00;;;;;;;19.73;50.76;100929.06;146696;666;46016;-61
2021/06/15 01:12:31;;;;;;;6.03;1.90;;;;;;;19.75;50.18;100929.81;146695;605;46010;-61
2021/06/15 01:16:02;;;;;;;6.30;2.00;;;;;;;19.76;50.02;100928.84;146695;610;46010;-61
2021/06/15 01:18:42;;;;;;;4.00;1.70;;;;;;;19.92;48.50;100931.44;146697;601;46018;-60
2021/06/15 01:21:13;;;;;;;3.20;1.55;;;;;;;19.93;46.59;100930.50;146692;614;46908;-59
2021/06/15 01:24:26;;;;;;;3.60;1.55;;;;;;;19.94;47.75;100924.22;146697;575;46018;-59
2021/06/15 01:27:47;;;;;;;3.22;1.60;;;;;;;20.15;46.81;100925.56;146693;595;47022;-60
2021/06/15 01:30:23;;;;;;;3.90;1.80;;;;;;;20.21;46.81;100927.84;146697;602;46008;-60
2021/06/15 01:33:02;;;;;;;3.20;1.40;;;;;;;20.19;47.12;100933.28;146691;635;46016;-60
2021/06/15 01:35:34;;;;;;;4.82;1.80;;;;;;;20.18;47.35;100930.72;146696;606;46019;-60
2021/06/15 01:38:13;;;;;;;4.23;1.70;;;;;;;20.17;47.65;100929.00;146694;626;46016;-60
2021/06/15 01:41:05;;;;;;;2.87;1.50;;;;;;;20.06;46.61;100927.88;146696;601;46018;-59
2021/06/15 01:43:45;;;;;;;3.78;1.50;;;;;;;20.10;47.09;100918.72;146695;621;46011;-59
2021/06/15 01:46:21;;;;;;;2.87;1.60;;;;;;;20.12;46.92;100922.16;146696;578;46018;-60
2021/06/15 01:49:02;;;;;;;3.40;1.62;;;;;;;20.09;45.88;100924.16;146695;569;47010;-60
2021/06/15 01:51:35;;;;;;;2.35;1.40;;;;;;;20.11;45.96;100917.78;146697;569;46008;-59
2021/06/15 01:54:11;;;;;;;4.57;1.70;;;;;;;20.12;46.41;100914.16;146691;619;47010;-60
2021/06/15 01:56:43;;;;;;;2.78;1.45;;;;;;;20.14;46.11;100916.72;146694;628;46008;-59
2021/06/15 01:59:15;;;;;;;3.03;1.40;;;;;;;20.19;45.46;100917.28;146695;633;46018;-59
2021/06/15 02:01:54;;;;;;;2.70;1.30;;;;;;;20.17;44.87;100910.34;146696;569;46018;-60
2021/06/15 02:04:27;;;;;;;3.67;1.25;;;;;;;20.19;44.47;100911.97;146694;575;47010;-59
2021/06/15 02:07:00;;;;;;;2.17;1.33;;;;;;;20.20;44.69;100913.69;146695;627;46018;-60
2021/06/15 02:09:37;;;;;;;2.78;1.40;;;;;;;20.18;44.82;100909.41;146694;639;47010;-59
2021/06/15 02:12:08;;;;;;;2.95;1.35;;;;;;;20.15;45.04;100915.78;146695;613;46019;-60
2021/06/15 02:14:40;;;;;;;3.08;1.50;;;;;;;20.08;44.75;100912.66;146695;630;46010;-60
2021/06/15 02:17:14;;;;;;;2.78;1.30;;;;;;;20.06;44.53;100916.38;146697;603;46018;-60
2021/06/15 02:19:46;;;;;;;2.78;1.20;;;;;;;20.04;45.06;100911.16;146696;583;46010;-59
2021/06/15 02:22:20;;;;;;;2.72;1.50;;;;;;;20.07;45.25;100912.75;146696;563;46018;-60
2021/06/15 02:25:01;;;;;;;2.67;1.50;;;;;;;20.01;45.20;100916.69;146696;623;46016;-60
2021/06/15 02:27:32;;;;;;;2.05;1.48;;;;;;;19.99;45.43;100918.56;146698;659;45042;-61
2021/06/15 02:30:04;;;;;;;2.50;1.42;;;;;;;19.98;45.71;100922.19;146692;652;46018;-60
2021/06/15 02:32:36;;;;;;;4.80;1.62;;;;;;;19.97;45.75;100925.84;146698;610;46008;-59
2021/06/15 02:35:11;;;;;;;3.00;1.57;;;;;;;19.91;46.16;100927.06;146695;580;46011;-60
2021/06/15 02:37:45;;;;;;;;;;;;;;;19.86;45.89;100920.31;146702;981;46018;-59
2021/06/15 02:40:18;;;;;;;2.62;1.60;;;;;;;19.80;46.49;100921.56;146704;569;47020;-59
2021/06/15 02:42:51;;;;;;;4.32;1.50;;;;;;;19.67;46.58;100926.78;146695;625;46019;-59
2021/06/15 02:45:32;;;;;;;3.22;1.60;;;;;;;19.53;47.00;100913.47;146692;598;46033;-60
2021/06/15 02:48:07;;;;;;;3.10;1.42;;;;;;;19.45;46.92;100916.59;146698;641;46010;-60
2021/06/15 02:50:39;;;;;;;2.25;1.42;;;;;;;19.38;47.07;100913.50;146695;567;46013;-60
2021/06/15 02:53:17;;;;;;;3.20;1.58;;;;;;;19.31;47.00;100914.78;146693;564;46010;-60
2021/06/15 02:56:01;;;;;;;3.08;1.70;;;;;;;19.28;47.60;100915.00;146693;571;46033;-60
2021/06/15 02:58:32;;;;;;;2.15;1.33;;;;;;;19.21;48.29;100909.19;146697;564;46019;-60
2021/06/15 03:01:03;;;;;;;2.75;1.30;;;;;;;19.21;47.68;100922.50;146693;586;46018;-59
2021/06/15 03:03:36;;;;;;;2.65;1.50;;;;;;;19.11;47.84;100922.22;146697;595;46010;-60
2021/06/15 03:06:07;;;;;;;4.05;1.60;;;;;;;19.05;47.60;100935.88;146693;628;46018;-60
2021/06/15 03:08:40;;;;;;;3.35;1.40;;;;;;;19.02;47.99;100924.56;146698;591;46018;-59
2021/06/15 03:11:15;;;;;;;4.10;1.45;;;;;;;19.04;47.64;100918.22;146693;610;47012;-60
2021/06/15 03:13:53;;;;;;;2.47;1.40;;;;;;;18.96;48.33;100927.59;146696;607;46010;-59
2021/06/15 03:16:28;;;;;;;3.37;1.37;;;;;;;18.94;47.64;100936.53;146692;605;47020;-60
2021/06/15 03:19:16;;;;;;;2.85;1.42;;;;;;;18.87;48.72;100939.59;146698;591;46019;-60
2021/06/15 03:22:22;;;;;;;2.45;1.30;;;;;;;18.90;48.68;100939.44;146693;641;46018;-60
2021/06/15 03:25:00;;;;;;;2.90;1.40;;;;;;;18.83;48.31;100930.94;146695;569;46010;-60
2021/06/15 03:27:42;;;;;;;2.42;1.30;;;;;;;18.77;48.72;100945.47;146692;674;47021;-60
2021/06/15 03:30:15;;;;;;;2.90;1.35;;;;;;;18.80;49.04;100946.25;146696;581;46018;-61
2021/06/15 03:33:10;;;;;;;4.17;1.20;;;;;;;18.70;48.66;100948.56;146695;618;46908;-60
2021/06/15 03:35:44;;;;;;;5.07;1.80;;;;;;;18.71;49.01;100947.62;146694;569;46018;-60
2021/06/15 03:38:16;;;;;;;3.92;1.50;;;;;;;18.65;49.94;100954.16;146693;573;46016;-60
2021/06/15 03:40:51;;;;;;;5.12;1.83;;;;;;;18.59;50.10;100965.16;146695;591;46018;-60
2021/06/15 03:43:23;;;;;;;4.68;1.60;;;;;;;18.59;50.12;100974.00;146696;675;46012;-60
2021/06/15 03:46:10;;;;;;;2.92;1.50;;;;;;;18.51;50.72;100976.22;146698;605;46010;-59
2021/06/15 03:48:45;;;;;;;2.75;1.50;;;;;;;18.55;50.13;100979.59;146695;658;46908;-59
2021/06/15 03:51:32;;;;;;;4.65;1.67;;;;;;;18.53;50.75;100979.66;146696;595;46018;-59
2021/06/15 03:54:10;;;;;;;3.90;1.60;;;;;;;18.53;50.57;100987.62;146694;564;46012;-60
2021/06/15 03:56:44;;;;;;;4.10;1.40;;;;;;;18.53;49.80;100984.97;146698;564;46010;-60
2021/06/15 03:59:23;;;;;;;4.47;1.60;;;;;;;18.47;50.70;100992.47;146694;564;46018;-61
2021/06/15 04:01:57;;;;;;;2.92;1.50;;;;;;;18.39;50.76;100988.41;146699;566;45035;-59
2021/06/15 04:04:33;;;;;;;2.37;1.45;;;;;;;18.40;50.85;100989.28;146692;585;47012;-59
2021/06/15 04:07:06;;;;;;;2.90;1.42;;;;;;;18.34;51.02;100985.16;146698;587;46010;-59
2021/06/15 04:09:39;;;;;;;4.40;1.70;;;;;;;18.29;51.14;100989.91;146693;622;47022;-59
2021/06/15 04:12:11;;;;;;;2.85;1.60;;;;;;;18.29;51.02;100995.22;146698;652;46010;-59
2021/06/15 04:14:47;;;;;;;3.10;1.55;;;;;;;18.22;51.04;100993.81;146696;589;46016;-59
2021/06/15 04:17:23;;;;;;;4.12;1.62;;;;;;;18.30;51.59;100999.56;146697;596;47010;-59
2021/06/15 04:19:55;;;;;;;3.55;1.77;;;;;;;18.32;51.26;101004.81;146694;572;46012;-60
2021/06/15 04:22:35;;;;;;;4.22;1.60;;;;;;;18.33;51.80;100996.75;146697;565;46010;-59
2021/06/15 04:25:10;;;;;;;3.30;1.75;;;;;;;18.38;51.73;101002.66;146693;572;46018;-60
2021/06/15 04:27:40;;;;;;;3.97;1.70;;;;;;;18.50;50.91;101018.88;146697;583;46018;-60
2021/06/15 04:30:13;;;;;;;4.80;1.80;;;;;;;18.55;50.70;101007.03;146696;592;46016;-59
2021/06/15 04:32:59;;;;;;;3.30;1.90;;;;;;;18.63;50.44;101019.91;146695;604;47012;-60
2021/06/15 04:35:36;;;;;;;8.07;1.80;;;;;;;18.65;49.75;101012.66;146694;593;46018;-60
2021/06/15 04:38:29;;;;;;;3.45;1.77;;;;;;;18.63;50.05;101011.91;146700;586;45018;-60
2021/06/15 04:41:07;;;;;;;4.20;2.00;;;;;;;18.78;49.61;101019.00;146695;611;46013;-61
2021/06/15 04:44:17;;;;;;;2.80;1.77;;;;;;;18.84;49.93;101030.25;146697;563;46018;-60
2021/06/15 04:46:56;;;;;;;3.50;1.87;;;;;;;18.99;49.42;101021.41;146696;580;46018;-60
2021/06/15 04:49:53;;;;;;;4.85;1.83;;;;;;;19.17;49.13;101034.56;146698;584;46010;-60
2021/06/15 04:52:28;;;;;;;3.03;1.77;;;;;;;19.25;48.82;101038.47;146694;589;46018;-60
2021/06/15 04:55:01;;;;;;;4.50;2.20;;;;;;;19.40;48.39;101038.53;146699;567;46010;-60
2021/06/15 04:57:41;;;;;;;3.17;1.80;;;;;;;19.45;48.17;101034.63;146695;607;46019;-60
2021/06/15 05:00:12;;;;;;;5.65;1.98;;;;;;;19.47;48.20;101039.03;146697;581;46018;-59
2021/06/15 05:02:44;;;;;;;4.40;2.33;;;;;;;19.52;47.77;101043.13;146694;584;46018;-59
2021/06/15 05:05:16;;;;;;;4.75;2.12;;;;;;;19.60;47.87;101038.19;146698;572;46010;-60
2021/06/15 05:07:54;;;;;;;3.45;1.90;;;;;;;19.64;47.55;101043.31;146696;580;46012;-60
2021/06/15 05:10:27;;;;;;;6.45;1.95;;;;;;;19.65;47.03;101045.03;146698;569;46010;-60
2021/06/15 05:12:59;;;;;;;6.25;3.03;;;;;;;19.65;47.60;101045.88;146697;653;45023;-60
2021/06/15 05:15:32;;;;;;;9.88;3.55;;;;;;;19.71;48.41;101032.19;146699;571;45020;-60
2021/06/15 05:18:03;;;;;;;10.38;3.65;;;;;;;19.85;48.18;101030.53;146693;645;47020;-60
2021/06/15 05:20:34;;;;;;;9.13;2.87;;;;;;;19.93;48.43;101029.09;146697;570;46018;-60
2021/06/15 05:23:30;;;;;;;7.65;3.28;;;;;;;19.98;48.05;101036.78;146692;614;46018;-60
2021/06/15 05:26:01;;;;;;;5.97;3.08;;;;;;;20.12;47.83;101035.94;146697;605;46011;-59
2021/06/15 05:28:31;;;;;;;5.80;2.65;;;;;;;20.18;47.87;101042.69;146695;594;46012;-59
2021/06/15 05:31:02;;;;;;;5.05;2.35;;;;;;;20.28;47.94;101044.69;146696;586;46018;-60
2021/06/15 05:33:32;;;;;;;4.47;2.20;;;;;;;20.39;47.12;101051.13;146696;592;46012;-60
2021/06/15 05:36:03;;;;;;;4.57;2.15;;;;;;;20.54;47.04;101059.94;146696;563;46018;-60
2021/06/15 05:38:34;;;;;;;6.10;2.30;;;;;;;20.65;46.87;101073.44;146695;635;46018;-61
2021/06/15 05:41:04;;;;;;;7.70;2.83;;;;;;;20.77;46.11;101072.66;146697;592;46019;-60
2021/06/15 05:43:35;;;;;;;5.45;2.30;;;;;;;20.87;46.07;101067.59;146696;599;46012;-60
2021/06/15 05:46:06;;;;;;;3.75;1.90;;;;;;;20.95;45.63;101081.31;146699;632;46018;-60
2021/06/15 05:48:36;;;;;;;3.85;1.90;;;;;;;21.21;44.81;101075.16;146692;593;46907;-59
2021/06/15 05:51:07;;;;;;;5.28;2.17;;;;;;;21.25;45.37;101076.69;146695;623;46018;-59
2021/06/15 05:53:37;;;;;;;5.93;1.70;;;;;;;21.24;45.02;101074.97;146695;620;46908;-60
2021/06/15 05:56:08;;;;;;;5.40;1.50;;;;;;;21.16;45.10;101072.81;146700;566;45031;-61
2021/06/15 05:58:38;;;;;;;6.65;1.58;;;;;;;21.08;45.04;101073.31;146694;563;46020;-60
2021/06/15 06:01:09;;;;;;;7.22;1.40;;;;;;;21.00;45.43;101074.81;146701;573;46010;-60
2021/06/15 06:03:51;;;;;;;7.50;1.50;;;;;;;20.98;45.71;101080.22;146692;611;46019;-60
2021/06/15 06:09:11;;;;;;;4.70;1.55;;;;;;;21.11;45.66;101074.94;146697;570;47020;-60
2021/06/15 06:11:45;;;;;;;3.20;1.60;;;;;;;21.09;45.03;101077.72;146698;616;46010;-59
2021/06/15 06:14:16;;;;;;;2.70;1.23;;;;;;;21.16;44.97;101083.50;146696;563;46018;-60
2021/06/15 06:16:47;;;;;;;4.62;1.40;;;;;;;21.17;44.79;101077.19;146694;745;46019;-60
2021/06/15 06:19:17;;;;;;;5.37;1.30;;;;;;;21.13;44.77;101073.87;146695;569;46012;-60
2021/06/15 06:21:49;;;;;;;4.70;1.10;;;;;;;21.15;45.07;101078.28;146697;637;46909;-59
2021/06/15 06:24:20;;;;;;;5.20;1.10;;;;;;;21.20;43.92;101081.47;146695;604;46017;-60
2021/06/15 06:26:51;;;;;;;3.60;1.60;;;;;;;21.25;44.05;101079.34;146698;599;46018;-60
2021/06/15 06:29:22;;;;;;;2.50;1.23;;;;;;;21.33;43.91;101079.69;146697;598;46033;-60
2021/06/15 06:31:53;;;;;;;3.03;1.27;;;;;;;21.40;43.60;101078.28;146699;656;46019;-60
2021/06/15 06:34:24;;;;;;;1.95;1.17;;;;;;;21.48;43.45;101083.97;146694;579;47012;-61
2021/06/15 06:36:54;;;;;;;2.33;1.20;;;;;;;21.57;42.48;101082.53;146699;594;46018;-59
2021/06/15 06:39:25;;;;;;;5.90;1.33;;;;;;;21.53;42.93;101083.72;146695;585;46018;-59
2021/06/15 06:41:55;;;;;;;6.87;2.00;;;;;;;21.60;42.98;101078.81;146696;585;46018;-60
2021/06/15 06:44:26;;;;;;;6.47;1.40;;;;;;;21.72;43.18;101080.63;146696;579;46908;-60
2021/06/15 06:46:57;;;;;;;3.55;1.33;;;;;;;21.93;42.45;101082.75;146698;613;46010;-58
2021/06/15 06:49:28;;;;;;;11.38;1.27;;;;;;;21.97;42.65;101073.56;146696;671;46016;-59
2021/06/15 06:51:58;;;;;;;5.32;1.30;;;;;;;22.07;42.10;101076.44;146698;573;46018;-59
2021/06/15 06:54:29;;;;;;;9.38;1.50;;;;;;;22.09;42.96;101072.69;146695;574;46019;-59
2021/06/15 06:56:59;;;;;;;4.53;1.50;;;;;;;22.27;41.92;101070.53;146698;609;46010;-59
2021/06/15 06:59:30;;;;;;;6.90;1.37;;;;;;;22.44;41.74;101071.16;146695;621;47020;-59
2021/06/15 07:02:00;;;;;;;3.25;1.33;;;;;;;22.51;41.06;101069.72;146700;733;45045;-59
2021/06/15 07:04:31;;;;;;;3.78;1.35;;;;;;;22.52;40.43;101073.28;146697;590;46012;-60
2021/06/15 07:07:02;;;;;;;2.42;1.30;;;;;;;22.53;40.60;101070.50;146696;582;46018;-60
2021/06/15 07:09:32;;;;;;;3.87;1.45;;;;;;;22.42;41.03;101071.28;146697;574;46012;-59
2021/06/15 07:12:03;;;;;;;4.37;1.20;;;;;;;22.31;40.67;101074.69;146698;589;46018;-59
2021/06/15 07:14:34;;;;;;;4.50;1.70;;;;;;;22.17;40.68;101076.63;146696;574;46012;-59
2021/06/15 07:17:04;;;;;;;5.40;1.62;;;;;;;22.06;41.29;101072.91;146699;646;46010;-59
2021/06/15 07:19:35;;;;;;;47.08;3.28;;;;;;;22.11;41.61;101076.09;146696;571;46023;-59
2021/06/15 07:22:07;;;;;;;5.47;1.60;;;;;;;21.96;42.89;101078.03;146699;569;46018;-58
2021/06/15 07:24:37;;;;;;;4.82;1.70;;;;;;;21.89;43.00;101081.28;146697;598;46021;-58
2021/06/15 07:27:08;;;;;;;7.18;3.75;;;;;;;21.91;43.26;101073.97;146699;710;46018;-59
2021/06/15 07:29:39;;;;;;;3.70;1.60;;;;;;;22.04;43.29;101074.84;146697;563;46016;-58
2021/06/15 07:32:09;;;;;;;5.28;2.60;;;;;;;22.12;43.55;101076.97;146700;721;46010;-59
2021/06/15 07:34:40;;;;;;;4.90;2.05;;;;;;;22.14;42.74;101075.91;146698;656;46016;-58
2021/06/15 07:37:11;;;;;;;4.25;1.83;;;;;;;22.12;42.58;101075.16;146701;635;46010;-58
2021/06/15 07:39:41;;;;;;;7.62;1.75;;;;;;;22.03;43.19;101082.97;146696;614;46019;-58
2021/06/15 07:42:22;;;;;;;4.10;2.00;;;;;;;21.91;43.44;101074.84;146700;610;46018;-59
2021/06/15 07:44:52;;;;;;;4.37;1.60;;;;;;;21.98;43.23;101077.97;146699;582;46016;-59
2021/06/15 07:47:23;;;;;;;3.55;1.58;;;;;;;22.15;43.18;101077.59;146698;590;46011;-59
2021/06/15 07:49:54;;;;;;;4.07;1.50;;;;;;;22.14;43.13;101069.69;146695;625;46018;-59
2021/06/15 07:52:28;;;;;;;3.95;1.70;;;;;;;22.24;42.98;101069.88;146699;587;46010;-59
2021/06/15 07:54:58;;;;;;;2.95;1.50;;;;;;;22.22;41.81;101063.78;146697;611;46016;-58
2021/06/15 07:57:28;;;;;;;3.80;1.42;;;;;;;22.27;42.97;101067.84;146696;579;46018;-59
2021/06/15 07:59:59;;;;;;;3.30;1.70;;;;;;;22.25;42.72;101066.25;146696;573;46020;-59
2021/06/15 08:02:29;;;;;;;2.25;1.40;;;;;;;22.19;42.17;101058.69;146697;576;47011;-59
2021/06/15 08:05:00;;;;;;;3.00;1.50;;;;;;;22.20;42.01;101057.69;146696;609;46018;-59
2021/06/15 08:07:30;;;;;;;4.60;1.70;;;;;;;22.34;41.91;101059.41;146699;589;46018;-59
2021/06/15 08:10:03;;;;;;;4.32;1.62;;;;;;;22.44;41.89;101058.66;146694;569;47020;-59
2021/06/15 08:12:34;;;;;;;4.03;1.50;;;;;;;22.59;41.98;101064.69;146699;589;46010;-59
2021/06/15 08:15:07;;;;;;;4.40;1.50;;;;;;;22.60;41.77;101055.69;146697;585;46012;-59
2021/06/15 08:17:37;;;;;;;3.45;1.70;;;;;;;22.77;41.56;101059.81;146698;638;46010;-59
2021/06/15 08:20:10;;;;;;;2.53;1.50;;;;;;;23.04;40.62;101060.53;146695;585;46018;-58
2021/06/15 08:22:40;;;;;;;3.70;1.70;;;;;;;22.98;40.84;101053.81;146700;581;45046;-60
2021/06/15 08:25:13;;;;;;;3.07;1.30;;;;;;;23.18;40.53;101063.03;146695;574;46019;-60
2021/06/15 08:27:44;;;;;;;2.40;1.40;;;;;;;23.31;40.61;101065.66;146700;576;46010;-60
2021/06/15 08:30:15;;;;;;;3.42;1.67;;;;;;;23.38;40.30;101049.97;146697;602;46012;-60
2021/06/15 08:32:46;;;;;;;3.80;1.48;;;;;;;23.62;39.48;101052.56;146700;564;46018;-60
2021/06/15 08:35:17;;;;;;;3.67;1.60;;;;;;;23.44;39.27;101050.34;146695;563;46905;-60
2021/06/15 08:37:48;;;;;;;3.30;1.37;;;;;;;23.29;39.90;101048.84;146699;613;46018;-60
2021/06/15 08:40:19;;;;;;;3.03;1.30;;;;;;;23.35;39.86;101047.50;146698;576;46016;-61
2021/06/15 08:42:50;;;;;;;2.40;1.50;;;;;;;23.26;39.72;101043.72;146700;586;46018;-60
2021/06/15 08:45:21;;;;;;;2.80;1.60;;;;;;;23.22;39.70;101043.09;146696;728;46018;-60
2021/06/15 08:47:54;;;;;;;2.53;1.50;;;;;;;23.27;39.92;101042.75;146699;594;46018;-60
2021/06/15 08:50:27;;;;;;;1.85;1.37;;;;;;;23.32;39.40;101044.09;146697;626;46906;-60
2021/06/15 08:52:57;;;;;;;2.60;1.48;;;;;;;23.39;39.57;101041.81;146700;581;46018;-60
2021/06/15 08:55:32;;;;;;;3.00;1.60;;;;;;;23.44;40.20;101045.00;146698;588;46016;-60
2021/06/15 08:58:57;;;;;;;3.42;1.60;;;;;;;23.59;39.46;101051.00;146699;628;46018;-59
2021/06/15 09:01:27;;;;;;;3.60;1.60;;;;;;;23.85;38.96;101048.06;146695;570;46019;-59
2021/06/15 09:03:58;;;;;;;4.03;1.50;;;;;;;24.08;37.83;101048.09;146699;583;46033;-59
2021/06/15 09:06:29;;;;;;;3.67;1.60;;;;;;;23.92;38.26;101043.09;146697;646;46012;-59
2021/06/15 09:09:00;;;;;;;4.47;1.58;;;;;;;23.98;38.12;101042.62;146698;569;46019;-59
2021/06/15 09:11:56;;;;;;;3.15;1.55;;;;;;;23.88;38.08;101030.88;146696;591;46016;-60
2021/06/15 09:14:47;;;;;;;3.10;1.50;;;;;;;24.05;37.62;101035.78;146700;569;46010;-59
2021/06/15 09:17:36;;;;;;;3.62;1.52;;;;;;;24.31;36.25;101035.53;146698;593;46016;-59
2021/06/15 09:20:17;;;;;;;3.60;1.45;;;;;;;24.66;35.59;101026.47;146697;610;46018;-60
2021/06/15 09:23:09;;;;;;;3.62;1.40;;;;;;;24.70;35.63;101038.66;146697;631;46016;-60
2021/06/15 09:25:39;;;;;;;2.10;1.35;;;;;;;24.92;34.92;101029.66;146698;606;46019;-60
2021/06/15 09:28:22;;;;;;;3.17;1.20;;;;;;;24.91;35.35;101027.94;146700;581;45022;-60
2021/06/15 09:31:18;;;;;;;3.75;1.50;;;;;;;24.74;36.29;101021.31;146697;571;47010;-59
2021/06/15 09:33:49;;;;;;;3.37;1.50;;;;;;;24.90;36.03;101028.91;146698;595;46012;-59
2021/06/15 09:36:28;;;;;;;3.70;1.70;;;;;;;24.68;36.62;101035.22;146698;591;46018;-59
2021/06/15 09:39:02;;;;;;;2.37;1.37;;;;;;;24.42;37.10;101026.59;146695;621;46019;-58
2021/06/15 09:41:48;;;;;;;4.05;1.60;;;;;;;24.26;36.78;101035.03;146696;602;46018;-60
2021/06/15 09:44:28;;;;;;;3.47;1.40;;;;;;;24.03;37.22;101044.94;146694;580;47022;-59
2021/06/15 09:47:07;;;;;;;4.32;1.62;;;;;;;23.96;37.73;101039.22;146698;596;46019;-59
2021/06/15 09:49:45;;;;;;;4.20;1.73;;;;;;;23.84;38.07;101038.34;146697;564;46016;-59
2021/06/15 09:52:30;;;;;;;2.87;1.40;;;;;;;23.72;37.94;101037.47;146701;621;46018;-59
2021/06/15 09:55:06;;;;;;;3.53;1.65;;;;;;;23.74;37.92;101040.03;146697;597;47013;-59
2021/06/15 09:57:40;;;;;;;6.47;1.65;;;;;;;23.89;38.47;101030.78;146698;569;46018;-59
2021/06/15 10:00:22;;;;;;;3.08;1.55;;;;;;;23.89;37.75;101032.63;146698;572;46012;-59
2021/06/15 10:03:02;;;;;;;2.62;1.50;;;;;;;23.87;38.43;101029.22;146696;581;46019;-59
2021/06/15 10:05:36;;;;;;;4.70;1.50;;;;;;;24.03;38.56;101021.69;146697;624;46016;-60
2021/06/15 10:08:13;;;;;;;3.72;1.40;;;;;;;24.07;38.38;101017.78;146699;640;45020;-59
2021/06/15 10:10:46;;;;;;;3.15;1.50;;;;;;;24.42;38.18;101013.19;146694;590;46018;-60
2021/06/15 10:13:17;;;;;;;4.20;1.40;;;;;;;24.43;37.98;101014.91;146699;565;46010;-59
2021/06/15 10:15:49;;;;;;;2.62;1.50;;;;;;;24.39;37.66;101013.44;146696;573;46018;-59
2021/06/15 10:18:19;;;;;;;5.45;1.62;;;;;;;24.37;37.61;101013.53;146698;626;47012;-61
2021/06/15 10:20:51;;;;;;;2.87;1.58;;;;;;;24.11;37.94;101016.53;146698;598;46012;-61
2021/06/15 10:23:22;;;;;;;5.03;1.70;;;;;;;24.03;38.46;101019.00;146698;603;46910;-59
2021/06/15 10:25:53;;;;;;;3.65;1.30;;;;;;;24.10;38.07;101016.66;146697;578;46019;-60
2021/06/15 10:28:24;;;;;;;2.33;1.50;;;;;;;24.46;37.19;101015.47;146699;620;46018;-60
2021/06/15 10:31:02;;;;;;;3.37;1.40;;;;;;;24.57;37.02;101011.06;146696;564;47022;-60
2021/06/15 10:34:01;;;;;;;3.08;1.33;;;;;;;24.60;35.58;101005.44;146700;635;46018;-60
2021/06/15 10:36:46;;;;;;;3.70;1.55;;;;;;;24.84;36.76;101013.34;146698;587;46012;-59
2021/06/15 10:39:41;;;;;;;3.35;1.50;;;;;;;24.84;37.31;100991.84;146698;614;46019;-61
2021/06/15 10:42:14;;;;;;;3.33;1.45;;;;;;;25.11;36.56;101002.09;146698;593;46905;-59
2021/06/15 10:44:44;;;;;;;;;;;;;;;25.40;35.96;101001.44;146701;981;46018;-59
2021/06/15 10:47:15;;;;;;;3.90;1.50;;;;;;;25.47;35.31;101002.63;146705;603;46019;-59
2021/06/15 10:50:01;;;;;;;4.57;1.52;;;;;;;25.15;35.36;100990.09;146699;593;46018;-59
2021/06/15 10:53:09;;;;;;;3.40;1.52;;;;;;;25.34;36.02;100972.41;146697;601;46018;-60
2021/06/15 10:55:45;;;;;;;4.72;1.70;;;;;;;25.57;34.93;100977.62;146696;623;46018;-60
2021/06/15 10:58:52;;;;;;;4.62;1.58;;;;;;;25.61;35.67;100996.03;146695;657;46020;-60
2021/06/15 11:01:36;;;;;;;3.20;1.40;;;;;;;25.53;35.53;100990.47;146699;573;46008;-60
2021/06/15 11:04:15;;;;;;;1.87;1.30;;;;;;;25.59;35.58;100995.31;146695;582;46018;-60
2021/06/15 11:06:55;;;;;;;2.30;1.35;;;;;;;25.53;35.82;100987.78;146691;627;48008;-59
2021/06/15 11:09:32;;;;;;;3.05;1.55;;;;;;;25.73;35.39;100977.13;146697;565;46010;-59
2021/06/15 11:12:22;;;;;;;4.10;1.70;;;;;;;25.65;34.91;100970.56;146700;605;46018;-59
2021/06/15 11:15:22;;;;;;;2.72;1.50;;;;;;;25.87;34.98;100981.28;146694;587;47022;-59
2021/06/15 11:17:57;;;;;;;3.42;1.52;;;;;;;25.97;34.64;100974.97;146699;612;46008;-59
2021/06/15 11:20:40;;;;;;;4.43;1.30;;;;;;;26.17;34.79;100959.72;146697;590;46010;-59
2021/06/15 11:23:25;;;;;;;3.20;1.50;;;;;;;26.17;34.35;100959.72;146700;591;46018;-61
2021/06/15 11:26:05;;;;;;;4.72;1.50;;;;;;;25.97;33.92;100957.94;146696;613;46902;-59
2021/06/15 11:28:39;;;;;;;4.18;1.37;;;;;;;25.92;34.67;100955.69;146697;582;46008;-59
2021/06/15 11:31:38;;;;;;;5.03;1.52;;;;;;;25.76;33.97;100939.22;146694;593;46903;-59
2021/06/15 11:34:15;;;;;;;5.57;1.50;;;;;;;25.81;34.71;100953.94;146701;599;46008;-60
2021/06/15 11:36:55;;;;;;;3.92;1.55;;;;;;;25.67;34.51;100948.94;146695;586;46018;-59
2021/06/15 11:39:32;;;;;;;4.78;1.70;;;;;;;25.61;33.94;100942.25;146700;587;46011;-59
2021/06/15 11:42:28;;;;;;;2.53;1.50;;;;;;;25.67;34.61;100939.03;146696;697;46903;-59
2021/06/15 11:45:33;;;;;;;2.80;1.70;;;;;;;26.00;33.86;100938.87;146698;634;46008;-59
2021/06/15 11:48:32;;;;;;;;;;;;;;;26.00;34.37;100930.78;146699;979;46018;-60
2021/06/15 11:51:11;;;;;;;3.42;1.60;;;;;;;26.15;34.28;100929.44;146711;621;47008;-60
2021/06/15 11:53:42;;;;;;;2.22;1.60;;;;;;;26.15;33.93;100923.22;146692;585;47906;-59
2021/06/15 11:56:14;;;;;;;2.28;1.60;;;;;;;26.23;34.15;100919.81;146698;607;46910;-59
2021/06/15 11:58:47;;;;;;;2.78;1.50;;;;;;;26.28;34.14;100922.94;146694;570;46018;-59
2021/06/15 12:01:17;;;;;;;3.75;1.45;;;;;;;26.02;34.58;100923.47;146696;575;46018;-60
2021/06/15 12:03:50;;;;;;;3.75;1.45;;;;;;;25.71;35.73;100911.87;146693;620;46018;-59
2021/06/15 12:06:21;;;;;;;3.78;1.70;;;;;;;25.54;36.16;100914.22;146697;573;46018;-59
2021/06/15 12:08:51;;;;;;;4.40;1.40;;;;;;;25.50;35.89;100912.81;146697;621;46012;-60
2021/06/15 12:11:22;;;;;;;4.10;1.60;;;;;;;25.46;35.58;100912.22;146696;654;47010;-60